createdAt,value
2019-04-28T00:04:34.154Z,12.25
2019-04-28T00:09:41.359Z,12.24
2019-04-28T00:14:46.767Z,12.24
2019-04-28T00:19:54.182Z,12.21
2019-04-28T00:25:04.299Z,12.19
2019-04-28T00:30:11.758Z,12.17
2019-04-28T00:35:17.381Z,12.14
2019-04-28T00:40:22.833Z,12.11
2019-04-28T00:45:28.335Z,12.08
2019-04-28T00:50:33.872Z,12.08
2019-04-28T00:55:39.272Z,12.05
2019-04-28T01:00:46.519Z,12.03
2019-04-28T01:05:52.085Z,12.01
2019-04-28T01:10:57.572Z,11.99
2019-04-28T01:16:19.394Z,11.98
2019-04-28T01:21:30.010Z,11.97
2019-04-28T01:26:35.495Z,11.94
2019-04-28T01:31:49.407Z,11.92
2019-04-28T01:36:54.970Z,11.91
2019-04-28T01:42:00.444Z,11.92
2019-04-28T01:47:05.939Z,11.93
2019-04-28T01:52:11.375Z,11.92
2019-04-28T01:57:16.841Z,11.93
2019-04-28T02:02:22.311Z,11.92
2019-04-28T02:07:27.791Z,11.93
2019-04-28T02:12:33.426Z,11.93
2019-04-28T02:17:40.180Z,11.92
2019-04-28T02:22:57.070Z,11.90
2019-04-28T02:28:02.528Z,11.89
2019-04-28T02:33:07.977Z,11.87
2019-04-28T02:38:13.378Z,11.86
2019-04-28T02:43:20.942Z,11.86
2019-04-28T02:48:27.303Z,11.85
2019-04-28T02:53:35.427Z,11.84
2019-04-28T02:58:41.688Z,11.81
2019-04-28T03:03:47.313Z,11.79
2019-04-28T03:08:52.884Z,11.78
2019-04-28T03:14:00.777Z,11.75
2019-04-28T03:19:05.484Z,11.75
2019-04-28T03:24:13.349Z,11.71
2019-04-28T03:29:26.677Z,11.71
2019-04-28T03:34:53.043Z,11.71
2019-04-28T03:39:55.814Z,11.71
2019-04-28T03:45:02.888Z,11.71
2019-04-28T03:50:10.486Z,11.72
2019-04-28T03:55:15.643Z,11.74
2019-04-28T04:00:21.981Z,11.74
2019-04-28T04:05:30.432Z,11.73
2019-04-28T04:10:43.998Z,11.70
2019-04-28T04:16:07.147Z,11.66
2019-04-28T04:21:13.067Z,11.64
2019-04-28T04:26:21.014Z,11.64
2019-04-28T04:31:25.803Z,11.63
2019-04-28T04:36:31.388Z,11.65
2019-04-28T04:41:36.932Z,11.70
2019-04-28T04:46:42.446Z,11.74
2019-04-28T04:51:50.680Z,11.77
2019-04-28T04:56:55.126Z,11.83
2019-04-28T05:02:29.613Z,11.91
2019-04-28T05:07:32.757Z,11.97
2019-04-28T05:12:38.228Z,12.08
2019-04-28T05:17:43.669Z,12.16
2019-04-28T05:23:00.272Z,12.17
2019-04-28T05:28:05.982Z,12.17
2019-04-28T05:33:13.703Z,12.22
2019-04-28T05:38:20.144Z,12.29
2019-04-28T05:43:25.714Z,12.36
2019-04-28T05:48:52.970Z,12.45
2019-04-28T05:54:06.666Z,12.61
2019-04-28T05:59:16.576Z,12.74
2019-04-28T06:04:25.360Z,12.88
2019-04-28T06:09:39.741Z,13.00
2019-04-28T06:14:45.070Z,13.08
2019-04-28T06:19:50.581Z,13.21
2019-04-28T06:24:56.038Z,13.37
2019-04-28T06:30:01.487Z,13.57
2019-04-28T06:35:07.121Z,13.75
2019-04-28T06:40:12.596Z,13.90
2019-04-28T06:45:18.035Z,14.14
2019-04-28T06:50:23.484Z,14.48
2019-04-28T06:55:28.920Z,14.89
2019-04-28T07:00:34.530Z,15.37
2019-04-28T07:05:40.028Z,16.01
2019-04-28T07:10:45.673Z,16.68
2019-04-28T07:15:51.177Z,17.48
2019-04-28T07:21:21.717Z,18.37
2019-04-28T07:26:27.231Z,19.93
2019-04-28T07:31:32.949Z,22.70
2019-04-28T07:36:38.535Z,26.12
2019-04-28T07:41:43.999Z,27.44
2019-04-28T07:46:49.475Z,30.07
2019-04-28T07:52:06.427Z,30.70
2019-04-28T07:57:12.337Z,29.04
2019-04-28T08:02:17.762Z,26.90
2019-04-28T08:07:23.438Z,26.25
2019-04-28T08:12:29.270Z,28.39
2019-04-28T08:17:36.793Z,31.94
2019-04-28T08:22:42.487Z,35.57
2019-04-28T08:27:48.428Z,35.06
2019-04-28T08:33:05.288Z,32.41
2019-04-28T08:38:10.988Z,29.53
2019-04-28T08:43:16.449Z,27.07
2019-04-28T08:48:21.913Z,25.39
2019-04-28T08:53:27.477Z,24.32
2019-04-28T08:58:32.919Z,24.68
2019-04-28T09:03:38.393Z,26.02
2019-04-28T09:08:44.051Z,27.77
2019-04-28T09:13:49.589Z,26.52
2019-04-28T09:18:55.186Z,24.64
2019-04-28T09:24:00.715Z,22.90
2019-04-28T09:29:06.403Z,21.89
2019-04-28T09:34:11.978Z,21.65
2019-04-28T09:39:19.259Z,21.52
2019-04-28T09:44:25.010Z,21.83
2019-04-28T09:49:30.548Z,21.85
2019-04-28T09:54:36.086Z,21.82
2019-04-28T09:59:41.673Z,22.36
2019-04-28T10:04:47.211Z,22.56
2019-04-28T10:09:52.835Z,22.86
2019-04-28T10:14:58.297Z,22.76
2019-04-28T10:20:04.060Z,22.39
2019-04-28T10:25:09.851Z,21.94
2019-04-28T10:30:15.609Z,21.94
2019-04-28T10:35:21.275Z,22.32
2019-04-28T10:40:42.498Z,22.63
2019-04-28T10:45:49.460Z,23.15
2019-04-28T10:50:54.919Z,23.18
2019-04-28T10:56:00.422Z,23.01
2019-04-28T11:01:06.011Z,22.90
2019-04-28T11:06:12.733Z,22.33
2019-04-28T11:11:24.583Z,21.90
2019-04-28T11:16:33.739Z,21.72
2019-04-28T11:21:39.367Z,21.73
2019-04-28T11:26:46.888Z,21.44
2019-04-28T11:31:52.566Z,21.13
2019-04-28T11:36:58.228Z,21.02
2019-04-28T11:42:03.716Z,20.85
2019-04-28T11:47:10.909Z,20.75
2019-04-28T11:52:16.810Z,20.88
2019-04-28T11:57:22.408Z,21.01
2019-04-28T12:02:28.147Z,21.12
2019-04-28T12:07:33.671Z,20.88
2019-04-28T12:12:58.416Z,20.70
2019-04-28T12:18:38.116Z,20.75
2019-04-28T12:23:43.946Z,20.74
2019-04-28T12:28:49.540Z,20.50
2019-04-28T12:33:55.009Z,20.42
2019-04-28T12:39:00.553Z,20.65
2019-04-28T12:44:06.088Z,21.23
2019-04-28T12:49:29.098Z,21.56
2019-04-28T12:54:36.200Z,21.53
2019-04-28T12:59:46.802Z,21.29
2019-04-28T13:04:55.689Z,20.90
2019-04-28T13:10:01.167Z,20.43
2019-04-28T13:15:06.750Z,19.88
2019-04-28T13:20:12.186Z,19.45
2019-04-28T13:25:17.721Z,19.04
2019-04-28T13:30:23.149Z,18.60
2019-04-28T13:35:28.677Z,18.25
2019-04-28T13:40:35.915Z,18.00
2019-04-28T13:45:41.640Z,17.84
2019-04-28T13:50:48.959Z,17.73
2019-04-28T13:56:01.681Z,17.73
2019-04-28T14:01:24.476Z,17.77
2019-04-28T14:06:31.435Z,17.87
2019-04-28T14:11:36.940Z,17.98
2019-04-28T14:16:42.507Z,18.09
2019-04-28T14:21:48.053Z,18.19
2019-04-28T14:26:53.499Z,18.06
2019-04-28T14:31:59.019Z,17.79
2019-04-28T14:37:04.802Z,17.74
2019-04-28T14:42:10.233Z,17.84
2019-04-28T14:47:15.775Z,18.01
2019-04-28T14:52:21.234Z,18.17
2019-04-28T14:57:26.827Z,18.35
2019-04-28T15:02:53.968Z,18.30
2019-04-28T15:08:27.043Z,18.06
2019-04-28T15:13:32.526Z,17.83
2019-04-28T15:18:38.215Z,17.56
2019-04-28T15:23:43.721Z,17.29
2019-04-28T15:28:49.165Z,16.98
2019-04-28T15:33:54.664Z,16.74
2019-04-28T15:39:00.196Z,16.59
2019-04-28T15:44:05.864Z,16.48
2019-04-28T15:49:11.321Z,16.42
2019-04-28T15:54:16.976Z,16.39
2019-04-28T15:59:24.372Z,16.34
2019-04-28T16:04:29.839Z,16.28
2019-04-28T16:09:35.483Z,16.09
2019-04-28T16:14:40.997Z,15.88
2019-04-28T16:19:46.506Z,15.73
2019-04-28T16:24:52.021Z,15.71
2019-04-28T16:29:57.429Z,15.80
2019-04-28T16:35:02.891Z,15.98
2019-04-28T16:40:09.582Z,16.20
2019-04-28T16:45:18.483Z,16.30
2019-04-28T16:50:23.156Z,16.32
2019-04-28T16:55:36.012Z,16.25
2019-04-28T17:01:09.247Z,16.10
2019-04-28T17:06:14.968Z,15.92
2019-04-28T17:11:20.408Z,15.71
2019-04-28T17:16:25.856Z,15.52
2019-04-28T17:21:31.314Z,15.34
2019-04-28T17:26:36.743Z,15.19
2019-04-28T17:31:42.162Z,15.04
2019-04-28T17:36:47.726Z,14.89
2019-04-28T17:41:53.272Z,14.74
2019-04-28T17:46:58.842Z,14.61
2019-04-28T17:52:04.720Z,14.44
2019-04-28T17:57:10.167Z,14.29
2019-04-28T18:02:49.541Z,14.14
2019-04-28T18:07:59.943Z,13.98
2019-04-28T18:13:05.544Z,13.84
2019-04-28T18:18:17.881Z,13.71
2019-04-28T18:23:23.449Z,13.55
2019-04-28T18:28:28.868Z,13.40
2019-04-28T18:34:02.314Z,13.24
2019-04-28T18:39:25.997Z,13.07
2019-04-28T18:44:31.551Z,12.92
2019-04-28T18:49:37.052Z,12.78
2019-04-28T18:54:42.529Z,12.63
2019-04-28T18:59:48.219Z,12.49
2019-04-28T19:04:53.707Z,12.35
2019-04-28T19:10:05.178Z,12.21
2019-04-28T19:15:24.604Z,12.09
2019-04-28T19:20:30.084Z,11.95
2019-04-28T19:25:35.565Z,11.85
2019-04-28T19:30:41.492Z,11.75
2019-04-28T19:35:46.962Z,11.65
2019-04-28T19:40:52.392Z,11.56
2019-04-28T19:46:00.095Z,11.48
2019-04-28T19:51:05.727Z,11.37
2019-04-28T19:56:33.076Z,11.29
2019-04-28T20:01:38.624Z,11.18
2019-04-28T20:06:44.180Z,11.08
2019-04-28T20:11:49.767Z,10.99
2019-04-28T20:16:55.288Z,10.91
2019-04-28T20:22:00.788Z,10.82
2019-04-28T20:27:06.397Z,10.72
2019-04-28T20:32:11.802Z,10.61
2019-04-28T20:37:30.362Z,10.51
2019-04-28T20:43:02.057Z,10.46
2019-04-28T20:48:07.793Z,10.40
2019-04-28T20:53:13.256Z,10.35
2019-04-28T20:58:18.738Z,10.30
2019-04-28T21:03:24.165Z,10.26
2019-04-28T21:08:29.638Z,10.22
2019-04-28T21:13:35.079Z,10.20
2019-04-28T21:18:40.520Z,10.16
2019-04-28T21:23:45.928Z,10.12
2019-04-28T21:28:51.372Z,10.10
2019-04-28T21:33:56.841Z,10.06
2019-04-28T21:39:02.496Z,10.02
2019-04-28T21:44:17.172Z,9.97
2019-04-28T21:49:27.611Z,9.90
2019-04-28T21:54:33.085Z,9.85
2019-04-28T21:59:38.494Z,9.81
2019-04-28T22:04:46.759Z,9.75
2019-04-28T22:09:51.232Z,9.69
2019-04-28T22:14:56.777Z,9.61
2019-04-28T22:20:02.252Z,9.54
2019-04-28T22:25:12.927Z,9.47
2019-04-28T22:30:18.331Z,9.43
2019-04-28T22:35:23.765Z,9.38
2019-04-28T22:40:29.201Z,9.33
2019-04-28T22:45:34.634Z,9.25
2019-04-28T22:50:44.279Z,9.19
2019-04-28T22:55:58.701Z,9.13
2019-04-28T23:01:21.698Z,9.08
2019-04-28T23:06:27.366Z,9.00
2019-04-28T23:11:32.758Z,8.96
2019-04-28T23:16:38.220Z,8.90
2019-04-28T23:22:01.221Z,8.84
2019-04-28T23:27:06.755Z,8.78
2019-04-28T23:32:12.299Z,8.76
2019-04-28T23:37:17.774Z,8.75
2019-04-28T23:42:39.825Z,8.72
2019-04-28T23:47:45.273Z,8.71
2019-04-28T23:53:05.346Z,8.71
2019-04-28T23:58:10.801Z,8.72
